createdAt,value
2019-04-06T00:02:32.809Z,19.00
2019-04-06T00:05:14.410Z,19.13
2019-04-06T00:07:56.245Z,18.83
2019-04-06T00:10:37.626Z,19.13
2019-04-06T00:13:19.104Z,18.73
2019-04-06T00:16:00.539Z,19.67
2019-04-06T00:18:42.461Z,20.00
2019-04-06T00:21:23.695Z,20.13
2019-04-06T00:24:04.461Z,19.10
2019-04-06T00:26:45.923Z,19.40
2019-04-06T00:29:27.314Z,20.30
2019-04-06T00:34:54.256Z,19.93
2019-04-06T00:37:35.470Z,20.27
2019-04-06T00:40:17.015Z,19.90
2019-04-06T00:42:58.666Z,19.33
2019-04-06T00:45:40.047Z,19.03
2019-04-06T00:48:21.698Z,18.70
2019-04-06T00:51:02.372Z,18.00
2019-04-06T00:53:31.935Z,23.93
2019-04-06T00:56:20.611Z,26.53
2019-04-06T00:59:12.200Z,21.37
2019-04-06T01:01:52.897Z,20.00
2019-04-06T01:04:33.662Z,19.10
2019-04-06T01:07:14.366Z,20.47
2019-04-06T01:09:55.823Z,20.93
2019-04-06T01:12:37.358Z,21.13
2019-04-06T01:15:18.894Z,21.20
2019-04-06T01:18:00.458Z,21.50
2019-04-06T01:20:42.126Z,22.23
2019-04-06T01:23:23.675Z,21.63
2019-04-06T01:26:07.380Z,23.03
2019-04-06T01:28:47.152Z,22.70
2019-04-06T01:31:27.803Z,22.20
2019-04-06T01:34:08.666Z,21.40
2019-04-06T01:36:49.428Z,21.97
2019-04-06T01:39:30.130Z,22.00
2019-04-06T01:42:11.755Z,21.27
2019-04-06T01:44:53.432Z,20.07
2019-04-06T01:47:34.871Z,19.70
2019-04-06T01:50:16.312Z,20.27
2019-04-06T01:52:57.743Z,22.30
2019-04-06T01:55:39.279Z,20.97
2019-04-06T01:58:19.959Z,19.33
2019-04-06T02:04:11.798Z,22.67
2019-04-06T02:06:53.242Z,21.57
2019-04-06T02:09:34.853Z,21.20
2019-04-06T02:12:15.628Z,21.43
2019-04-06T02:14:56.331Z,21.90
2019-04-06T02:17:37.242Z,20.20
2019-04-06T02:20:18.889Z,21.03
2019-04-06T02:23:00.307Z,21.57
2019-04-06T02:25:41.169Z,21.40
2019-04-06T02:28:22.744Z,20.77
2019-04-06T02:31:25.262Z,21.30
2019-04-06T02:37:34.542Z,20.03
2019-04-06T02:43:03.487Z,20.23
2019-04-06T02:45:44.553Z,21.07
2019-04-06T02:48:26.494Z,20.97
2019-04-06T02:51:07.913Z,20.57
2019-04-06T02:53:48.998Z,21.53
2019-04-06T02:56:44.882Z,20.67
2019-04-06T02:59:12.996Z,20.40
2019-04-06T03:01:54.614Z,20.17
2019-04-06T03:04:24.223Z,20.50
2019-04-06T03:06:53.733Z,19.60
2019-04-06T03:09:23.275Z,21.20
2019-04-06T03:11:52.869Z,20.83
2019-04-06T03:14:22.683Z,19.67
2019-04-06T03:16:52.210Z,21.97
2019-04-06T03:19:21.938Z,22.30
2019-04-06T03:21:51.610Z,21.33
2019-04-06T03:24:21.116Z,20.70
2019-04-06T03:27:00.657Z,22.07
2019-04-06T03:29:21.818Z,21.20
2019-04-06T03:31:51.620Z,20.63
2019-04-06T03:34:22.509Z,21.07
2019-04-06T03:36:53.002Z,20.97
2019-04-06T03:39:22.584Z,20.90
2019-04-06T03:41:52.078Z,22.07
2019-04-06T03:44:21.604Z,21.53
2019-04-06T03:46:51.231Z,21.03
2019-04-06T03:49:20.780Z,21.57
2019-04-06T03:51:50.331Z,21.77
2019-04-06T03:54:19.878Z,22.23
2019-04-06T03:56:49.565Z,21.80
2019-04-06T03:59:19.091Z,21.73
2019-04-06T04:01:48.731Z,21.13
2019-04-06T04:04:18.196Z,20.33
2019-04-06T04:06:48.673Z,22.60
2019-04-06T04:09:18.222Z,21.50
2019-04-06T04:11:47.678Z,21.23
2019-04-06T04:14:17.226Z,21.60
2019-04-06T04:16:46.776Z,22.43
2019-04-06T04:19:16.212Z,21.60
2019-04-06T04:21:45.681Z,22.00
2019-04-06T04:24:15.217Z,21.47
2019-04-06T04:26:44.765Z,23.13
2019-04-06T04:29:14.283Z,21.30
2019-04-06T04:31:43.843Z,22.57
2019-04-06T04:34:13.330Z,21.40
2019-04-06T04:36:42.873Z,22.63
2019-04-06T04:39:12.559Z,22.03
2019-04-06T04:41:42.496Z,21.07
2019-04-06T04:44:12.303Z,23.40
2019-04-06T04:46:41.877Z,21.87
2019-04-06T04:49:11.317Z,21.67
2019-04-06T04:51:40.862Z,22.93
2019-04-06T04:54:10.375Z,22.50
2019-04-06T04:56:39.821Z,21.13
2019-04-06T04:59:09.762Z,27.90
2019-04-06T05:01:39.275Z,25.15
2019-04-06T05:04:09.282Z,23.07
2019-04-06T05:06:38.703Z,22.20
2019-04-06T05:09:08.627Z,22.07
2019-04-06T05:11:38.376Z,22.80
2019-04-06T05:14:43.057Z,23.53
2019-04-06T05:17:12.576Z,22.57
2019-04-06T05:19:42.148Z,22.67
2019-04-06T05:22:11.750Z,23.00
2019-04-06T05:24:41.210Z,22.47
2019-04-06T05:27:10.679Z,21.13
2019-04-06T05:29:40.153Z,22.07
2019-04-06T05:32:09.678Z,26.87
2019-04-06T05:34:39.173Z,23.33
2019-04-06T05:37:15.658Z,22.37
2019-04-06T05:39:45.171Z,21.93
2019-04-06T05:42:14.607Z,22.37
2019-04-06T05:44:44.161Z,22.93
2019-04-06T05:47:13.848Z,22.83
2019-04-06T05:49:43.366Z,21.73
2019-04-06T05:52:12.822Z,22.80
2019-04-06T05:54:42.306Z,22.60
2019-04-06T05:57:11.896Z,22.37
2019-04-06T05:59:41.615Z,22.23
2019-04-06T06:02:11.300Z,22.23
2019-04-06T06:04:41.434Z,22.40
2019-04-06T06:07:11.558Z,22.73
2019-04-06T06:09:41.042Z,21.80
2019-04-06T06:12:12.082Z,27.90
2019-04-06T06:14:41.716Z,25.90
2019-04-06T06:17:11.274Z,24.93
2019-04-06T06:19:40.839Z,24.60
2019-04-06T06:22:10.420Z,24.40
2019-04-06T06:24:39.928Z,24.77
2019-04-06T06:27:09.478Z,25.37
2019-04-06T06:29:39.057Z,24.03
2019-04-06T06:32:08.546Z,25.30
2019-04-06T06:34:38.219Z,24.73
2019-04-06T06:37:07.775Z,23.67
2019-04-06T06:39:37.250Z,24.60
2019-04-06T06:42:06.695Z,29.92
2019-04-06T06:44:36.229Z,26.10
2019-04-06T06:47:05.694Z,27.63
2019-04-06T06:49:35.193Z,26.60
2019-04-06T06:52:04.631Z,28.67
2019-04-06T06:54:34.539Z,26.57
2019-04-06T06:57:03.991Z,31.37
2019-04-06T06:59:33.509Z,29.20
2019-04-06T07:02:02.994Z,27.60
2019-04-06T07:04:32.467Z,28.43
2019-04-06T07:07:01.937Z,27.87
2019-04-06T07:09:31.403Z,26.70
2019-04-06T07:12:00.871Z,27.47
2019-04-06T07:14:30.562Z,28.83
2019-04-06T07:17:00.149Z,27.93
2019-04-06T07:19:29.721Z,26.13
2019-04-06T07:21:59.244Z,26.80
2019-04-06T07:24:28.770Z,27.47
2019-04-06T07:26:58.279Z,30.02
2019-04-06T07:29:27.842Z,26.63
2019-04-06T07:31:57.288Z,25.97
2019-04-06T07:34:26.778Z,25.90
2019-04-06T07:36:56.253Z,26.80
2019-04-06T07:39:25.896Z,25.10
2019-04-06T07:41:55.470Z,26.00
2019-04-06T07:44:24.969Z,24.73
2019-04-06T07:46:54.531Z,25.17
2019-04-06T07:49:24.721Z,25.20
2019-04-06T07:51:54.260Z,24.43
2019-04-06T07:54:23.836Z,24.10
2019-04-06T07:56:53.388Z,24.07
2019-04-06T07:59:22.858Z,23.53
2019-04-06T08:01:52.472Z,23.17
2019-04-06T08:04:21.930Z,23.70
2019-04-06T08:06:51.457Z,23.50
2019-04-06T08:09:20.998Z,23.83
2019-04-06T08:11:50.452Z,22.70
2019-04-06T08:14:19.997Z,22.80
2019-04-06T08:16:49.798Z,22.53
2019-04-06T08:19:19.521Z,21.50
2019-04-06T08:21:49.134Z,22.57
2019-04-06T08:24:18.687Z,20.90
2019-04-06T08:26:48.191Z,23.03
2019-04-06T08:29:17.634Z,21.10
2019-04-06T08:31:47.076Z,22.57
2019-04-06T08:34:16.539Z,22.77
2019-04-06T08:36:46.088Z,22.50
2019-04-06T08:39:15.602Z,20.73
2019-04-06T08:41:45.077Z,21.17
2019-04-06T08:44:14.520Z,21.63
2019-04-06T08:46:44.500Z,21.17
2019-04-06T08:51:51.752Z,20.93
2019-04-06T08:54:32.458Z,20.70
2019-04-06T08:57:13.676Z,20.10
2019-04-06T08:59:55.023Z,19.27
2019-04-06T09:02:35.852Z,20.60
2019-04-06T09:05:17.542Z,20.20
2019-04-06T09:07:58.966Z,19.50
2019-04-06T09:10:40.331Z,19.93
2019-04-06T09:13:21.307Z,20.30
2019-04-06T09:16:03.961Z,20.70
2019-04-06T09:18:44.919Z,20.97
2019-04-06T09:21:26.279Z,20.10
2019-04-06T09:24:07.678Z,19.23
2019-04-06T09:26:49.266Z,20.47
2019-04-06T09:29:29.993Z,20.07
2019-04-06T09:32:11.637Z,19.80
2019-04-06T09:34:41.335Z,21.13
2019-04-06T09:37:30.083Z,20.17
2019-04-06T09:39:59.669Z,20.80
2019-04-06T09:42:48.234Z,22.30
2019-04-06T09:45:55.617Z,19.30
2019-04-06T09:49:03.048Z,20.33
2019-04-06T09:52:10.498Z,21.13
2019-04-06T09:55:17.917Z,21.63
2019-04-06T09:58:26.852Z,21.40
2019-04-06T10:01:15.466Z,21.13
2019-04-06T10:04:01.399Z,20.87
2019-04-06T10:06:56.522Z,21.03
2019-04-06T10:09:52.848Z,22.00
2019-04-06T10:13:00.864Z,24.10
2019-04-06T10:15:57.553Z,21.97
2019-04-06T10:18:58.925Z,20.97
2019-04-06T10:21:59.012Z,21.80
2019-04-06T10:25:01.853Z,21.03
2019-04-06T10:30:54.192Z,22.63
2019-04-06T10:33:57.409Z,22.43
2019-04-06T10:36:59.353Z,23.00
2019-04-06T10:39:45.236Z,23.47
2019-04-06T10:42:45.478Z,23.40
2019-04-06T10:45:39.641Z,23.00
2019-04-06T10:51:14.306Z,23.87
2019-04-06T10:54:21.750Z,22.30
2019-04-06T10:57:29.222Z,22.30
2019-04-06T11:00:36.563Z,21.65
2019-04-06T11:03:30.039Z,23.18
2019-04-06T11:06:20.524Z,23.50
2019-04-06T11:09:01.871Z,23.73
2019-04-06T11:14:33.543Z,23.85
2019-04-06T11:17:34.901Z,24.45
2019-04-06T11:20:25.719Z,22.52
2019-04-06T11:26:17.991Z,23.87
2019-04-06T11:29:20.578Z,22.93
2019-04-06T11:32:12.142Z,23.80
2019-04-06T11:35:14.977Z,23.73
2019-04-06T11:37:57.052Z,22.87
2019-04-06T11:44:13.369Z,23.42
2019-04-06T11:47:12.142Z,23.02
2019-04-06T11:50:00.361Z,22.37
2019-04-06T11:53:07.874Z,25.23
2019-04-06T11:59:05.276Z,22.75
2019-04-06T12:02:31.649Z,21.52
2019-04-06T12:05:34.665Z,21.55
2019-04-06T12:14:20.156Z,21.50
2019-04-06T12:17:26.525Z,20.82
2019-04-06T12:23:19.977Z,22.80
2019-04-06T12:31:59.949Z,22.50
2019-04-06T12:35:02.960Z,23.57
2019-04-06T12:37:46.760Z,27.85
2019-04-06T12:46:16.441Z,23.90
2019-04-06T12:49:22.482Z,23.45
2019-04-06T13:04:14.809Z,21.60
2019-04-06T13:10:23.586Z,19.50
2019-04-06T13:13:30.928Z,18.95
2019-04-06T13:16:38.234Z,18.07
2019-04-06T13:19:45.502Z,16.95
2019-04-06T13:22:52.884Z,16.40
2019-04-06T13:26:00.671Z,16.27
2019-04-06T13:29:08.414Z,15.48
2019-04-06T13:32:16.266Z,15.30
2019-04-06T13:35:05.723Z,14.35
2019-04-06T13:38:14.020Z,16.95
2019-04-06T13:41:22.874Z,15.35
2019-04-06T13:44:19.378Z,14.65
2019-04-06T13:47:15.118Z,15.55
2019-04-06T13:50:22.818Z,15.03
2019-04-06T13:53:30.490Z,15.45
2019-04-06T13:56:37.921Z,18.60
2019-04-06T13:59:45.631Z,16.02
2019-04-06T14:02:54.860Z,15.13
2019-04-06T14:11:08.692Z,15.25
2019-04-06T14:16:32.878Z,13.85
2019-04-06T14:19:39.233Z,16.97
2019-04-06T14:25:40.328Z,15.95
2019-04-06T14:31:04.358Z,15.15
2019-04-06T14:36:49.883Z,15.28
2019-04-06T14:43:25.271Z,15.13
2019-04-06T14:46:33.596Z,15.40
2019-04-06T14:49:41.037Z,15.13
2019-04-06T14:52:51.423Z,16.57
2019-04-06T14:56:01.897Z,17.00
2019-04-06T14:58:59.518Z,16.42
2019-04-06T15:02:07.378Z,15.75
2019-04-06T15:05:11.498Z,16.90
2019-04-06T15:10:36.175Z,15.10
2019-04-06T15:16:00.037Z,18.15
2019-04-06T15:19:00.342Z,15.88
2019-04-06T15:22:04.391Z,15.88
2019-04-06T15:27:29.383Z,15.40
2019-04-06T15:32:53.129Z,17.55
2019-04-06T15:41:07.512Z,15.55
2019-04-06T15:46:36.902Z,15.83
2019-04-06T15:49:38.514Z,16.12
2019-04-06T15:52:50.440Z,15.38
2019-04-06T15:55:52.076Z,15.60
2019-04-06T15:58:46.071Z,15.18
2019-04-06T16:02:01.614Z,15.48
2019-04-06T16:05:04.030Z,15.60
2019-04-06T16:08:07.205Z,14.38
2019-04-06T16:10:48.419Z,17.20
2019-04-06T16:13:42.212Z,14.95
2019-04-06T16:16:49.935Z,15.45
2019-04-06T16:32:33.250Z,14.15
2019-04-06T16:38:07.831Z,13.60
2019-04-06T16:41:15.290Z,15.00
2019-04-06T16:44:08.145Z,14.10
2019-04-06T16:50:41.421Z,13.25
2019-04-06T16:53:49.016Z,12.13
2019-04-06T16:56:56.512Z,12.88
2019-04-06T17:00:16.161Z,12.78
2019-04-06T17:03:14.247Z,12.37
2019-04-06T17:06:21.515Z,12.05
2019-04-06T17:09:04.288Z,11.85
2019-04-06T17:11:45.391Z,11.03
2019-04-06T17:14:26.473Z,11.53
2019-04-06T17:19:51.123Z,11.90
2019-04-06T17:22:32.358Z,12.07
2019-04-06T17:25:27.241Z,11.85
2019-04-06T17:28:16.025Z,12.35
2019-04-06T17:31:23.457Z,11.20
2019-04-06T17:34:30.965Z,13.00
2019-04-06T17:37:40.402Z,12.55
2019-04-06T17:40:48.574Z,11.65
2019-04-06T17:43:56.207Z,11.50
2019-04-06T17:46:43.717Z,11.73
2019-04-06T17:49:44.436Z,11.97
2019-04-06T17:52:32.523Z,11.65
2019-04-06T17:55:20.661Z,13.13
2019-04-06T17:57:59.224Z,12.23
2019-04-06T18:00:46.178Z,13.80
2019-04-06T18:03:53.042Z,11.93
2019-04-06T18:06:40.078Z,14.07
2019-04-06T18:09:18.514Z,13.13
2019-04-06T18:12:06.915Z,13.50
2019-04-06T18:14:36.552Z,13.75
2019-04-06T18:17:06.388Z,15.30
2019-04-06T18:19:36.477Z,13.60
2019-04-06T18:22:06.531Z,12.82
2019-04-06T18:24:36.772Z,14.07
2019-04-06T18:27:07.153Z,14.40
2019-04-06T18:29:36.753Z,14.03
2019-04-06T18:32:24.891Z,16.77
2019-04-06T18:34:53.741Z,14.98
2019-04-06T18:37:42.427Z,14.98
2019-04-06T18:40:26.210Z,15.23
2019-04-06T18:42:56.225Z,15.03
2019-04-06T18:45:27.574Z,13.98
2019-04-06T18:47:57.260Z,13.28
2019-04-06T18:50:34.232Z,12.95
2019-04-06T18:52:58.102Z,13.48
2019-04-06T18:55:27.766Z,13.25
2019-04-06T18:58:08.821Z,12.80
2019-04-06T19:00:28.995Z,12.78
2019-04-06T19:03:10.796Z,12.88
2019-04-06T19:05:30.434Z,12.87
2019-04-06T19:08:00.143Z,13.62
2019-04-06T19:10:29.626Z,13.58
2019-04-06T19:12:59.195Z,14.55
2019-04-06T19:15:28.718Z,14.38
2019-04-06T19:17:58.203Z,13.93
2019-04-06T19:20:27.728Z,14.27
2019-04-06T19:22:57.777Z,14.38
2019-04-06T19:25:27.428Z,14.80
2019-04-06T19:27:56.955Z,14.95
2019-04-06T19:30:28.625Z,14.93
2019-04-06T19:32:58.853Z,14.87
2019-04-06T19:35:28.499Z,14.40
2019-04-06T19:37:58.382Z,14.87
2019-04-06T19:40:28.186Z,14.77
2019-04-06T19:42:57.779Z,13.90
2019-04-06T19:45:27.766Z,14.13
2019-04-06T19:47:57.326Z,14.87
2019-04-06T19:50:27.146Z,13.93
2019-04-06T19:52:56.820Z,14.03
2019-04-06T19:55:26.389Z,14.30
2019-04-06T19:57:56.038Z,14.10
2019-04-06T20:00:25.821Z,14.53
2019-04-06T20:02:55.388Z,13.70
2019-04-06T20:05:25.159Z,15.05
2019-04-06T20:07:54.702Z,14.10
2019-04-06T20:10:24.170Z,13.93
2019-04-06T20:12:53.766Z,14.17
2019-04-06T20:15:23.441Z,14.47
2019-04-06T20:17:53.034Z,15.10
2019-04-06T20:20:22.531Z,14.93
2019-04-06T20:22:51.985Z,14.20
2019-04-06T20:25:21.518Z,14.50
2019-04-06T20:27:51.106Z,15.97
2019-04-06T20:30:20.697Z,14.03
2019-04-06T20:32:50.191Z,14.63
2019-04-06T20:35:20.190Z,14.53
2019-04-06T20:37:50.066Z,14.55
2019-04-06T20:40:19.907Z,16.37
2019-04-06T20:42:49.921Z,14.83
2019-04-06T20:45:19.486Z,15.43
2019-04-06T20:47:49.527Z,15.70
2019-04-06T20:50:19.418Z,14.70
2019-04-06T20:52:49.153Z,16.07
2019-04-06T20:55:18.970Z,15.30
2019-04-06T20:57:48.482Z,15.83
2019-04-06T21:00:18.766Z,14.40
2019-04-06T21:02:48.662Z,14.73
2019-04-06T21:05:18.474Z,14.17
2019-04-06T21:07:48.490Z,14.63
2019-04-06T21:10:18.091Z,13.53
2019-04-06T21:12:47.649Z,14.43
2019-04-06T21:15:20.970Z,14.07
2019-04-06T21:17:48.332Z,14.43
2019-04-06T21:20:18.335Z,14.33
2019-04-06T21:22:47.908Z,14.57
2019-04-06T21:25:19.071Z,14.63
2019-04-06T21:27:48.931Z,14.70
2019-04-06T21:30:18.631Z,15.48
2019-04-06T21:32:48.870Z,14.03
2019-04-06T21:35:18.896Z,16.10
2019-04-06T21:37:49.245Z,15.10
2019-04-06T21:40:19.855Z,15.53
2019-04-06T21:42:49.477Z,15.17
2019-04-06T21:45:19.609Z,14.93
2019-04-06T21:47:49.554Z,15.43
2019-04-06T21:50:19.116Z,15.68
2019-04-06T21:52:49.587Z,15.90
2019-04-06T21:55:19.492Z,15.32
2019-04-06T21:57:49.119Z,15.98
2019-04-06T22:00:32.162Z,15.40
2019-04-06T22:03:01.714Z,15.27
2019-04-06T22:05:31.668Z,16.12
2019-04-06T22:08:01.272Z,15.35
2019-04-06T22:10:31.513Z,15.93
2019-04-06T22:13:01.112Z,15.30
2019-04-06T22:15:30.573Z,16.27
2019-04-06T22:18:00.125Z,15.50
2019-04-06T22:20:29.821Z,16.05
2019-04-06T22:22:59.391Z,16.62
2019-04-06T22:25:29.019Z,16.97
2019-04-06T22:27:58.496Z,16.53
2019-04-06T22:30:28.060Z,16.80
2019-04-06T22:32:57.570Z,16.40
2019-04-06T22:35:27.035Z,17.67
2019-04-06T22:37:56.547Z,16.30
2019-04-06T22:40:26.107Z,18.10
2019-04-06T22:42:56.084Z,17.52
2019-04-06T22:45:26.932Z,18.07
2019-04-06T22:47:56.478Z,16.67
2019-04-06T22:50:26.003Z,17.90
2019-04-06T22:52:56.046Z,17.95
2019-04-06T22:55:25.610Z,18.57
2019-04-06T22:57:55.683Z,18.50
2019-04-06T23:00:32.136Z,18.13
2019-04-06T23:03:26.545Z,17.55
2019-04-06T23:05:59.603Z,17.00
2019-04-06T23:08:29.151Z,17.33
2019-04-06T23:10:58.591Z,17.25
2019-04-06T23:13:28.153Z,18.33
2019-04-06T23:15:57.720Z,17.20
2019-04-06T23:18:27.539Z,18.03
2019-04-06T23:20:57.558Z,18.50
2019-04-06T23:23:27.190Z,17.93
2019-04-06T23:25:56.732Z,18.10
2019-04-06T23:28:26.290Z,18.67
2019-04-06T23:30:55.756Z,18.37
2019-04-06T23:33:25.448Z,19.07
2019-04-06T23:35:55.047Z,17.73
2019-04-06T23:38:25.302Z,17.40
2019-04-06T23:40:54.857Z,18.07
2019-04-06T23:43:24.416Z,17.77
2019-04-06T23:45:53.864Z,18.20
2019-04-06T23:48:23.367Z,17.50
2019-04-06T23:50:53.625Z,17.57
2019-04-06T23:53:30.481Z,17.60
2019-04-06T23:55:59.933Z,17.83
2019-04-06T23:58:29.685Z,17.93
